Startpagina
METAR-TAF:

METAR-TAF

Vliegvelden :

Aeroporto Internacional do Recife

Recife, Pernambuco, Brazilië

breedte: 08-08S, lengte: 034-55W, hoogte: 19 m

Actueel weer

Dit bericht is 55 minuten geleden gemaakt, om 13:00 UTC
Wind 14 kt uit het zuidoosten
Temperatuur 27°C
Vochtigheid 66%
Druk 1017 hPa
Zicht 10 km of meer
Weinig wolken op 3000 ft

METAR: SBRF 231300Z 14014KT 9999 FEW030 27/20 Q1017

Tijdstip: 10:55 (13:55 UTC)

Verwachting

Dit bericht is 3 uur en het 55 minuten geleden gemaakt, om 10:00 UTC
Verwachting geldig van 23 om 12 UTC tot 24 om 12 UTC
Wind 8 kt uit het zuidoosten
Zicht: 8000 m
Verspreide wolken op 2000 ft

TAF: SBRF 231000Z 2312/2412 14008KT 8000 SCT020 TX28/2314Z TN24/2408Z RMK PCH

Waarnemingen en weersverwachtingen van meer dan 4000 vliegvelden (METAR en TAF).

De beschikbare stations zijn de gele en rode punten op de kaart.

Ga met uw muis naar het station om de naam te zien.

Klik dan om waarnemingen en weersverwachtingen te zien.

kaart wijzigen: klik op de groene knoppen met een zwart kruis om in te zoomen, op de groene knop met een streepje om uit te zoomen of op de groene pijlen voor aangrenzende kaarten.


METAR-TAF: